Ekin-s — TCMW3 — position and weather

sailwx.info

Track history (hours):
 
Tides and Currents Weather Stations Pressure Air Temp Water Temp Dewpoint Dewpoint Depression Visibility Wind Speed Wind Dir Waves Ship Positions

Ekin-s

Last reported at 2015-Jan-30 22:27 UTC. Time now 2015-Jan-31 07:06 UTC.
Position N 43°24' E 003°42'.

Length 109 m; draft 6.9 m.

Type: Ship. MMSI: 271042836.

Date/timePositionNaut miles runAvg speedWind from/ knotsBaromVisibWave heightAir tempDewpointWater temp
2015-Jan-30 22:27N 43°24' E 003°42'0 0.0
2015-Jan-30 20:27N 43°24' E 003°42'0 0.1
2015-Jan-30 14:32N 43°24' E 003°43'6 4.9
2015-Jan-30 13:15N 43°20' E 003°50'3 4.0
2015-Jan-30 12:25N 43°18' E 003°54'6 7.4
2015-Jan-30 11:33N 43°16' E 004°02'11 9.8
2015-Jan-30 10:29N 43°12' E 004°15'10 9.0
2015-Jan-30 09:21N 43°09' E 004°28'7 8.2
2015-Jan-30 08:28N 43°06' E 004°38'18 9.1
2015-Jan-30 06:30N 43°00' E 005°01'72 6.5
2015-Jan-29 19:33N 42°46' E 006°36'8 7.6
2015-Jan-29 18:33N 42°49' E 006°46'8 7.7
2015-Jan-29 17:33N 42°53' E 006°55'8 7.7
2015-Jan-29 16:33N 42°58' E 007°03'9 8.7
2015-Jan-29 15:33N 43°02' E 007°13'101 6.8
2015-Jan-29 00:33N 43°07' E 009°32'39510.8
2015-Jan-27 12:04N 38°24' E 015°35'611.6
2015-Jan-27 11:33N 38°19' E 015°41'1010.0
2015-Jan-27 10:33N 38°10' E 015°37'1212.2
2015-Jan-27 09:33N 37°58' E 015°35'1611.3
2015-Jan-27 08:10N 37°47' E 015°49'  
2015-Jan-25 00:21N 40°10' E 026°23'1311.9
2015-Jan-24 23:14N 40°19' E 026°36'912.6
2015-Jan-24 22:33N 40°25' E 026°43'123 6.8
2015-Jan-24 04:30N 41°24' E 029°06'  
2015-Jan-21 08:13N 41°20' E 029°13'  
Track history (hours):
 
Tides and Currents Weather Stations Pressure Air Temp Water Temp Dewpoint Dewpoint Depression Visibility Wind Speed Wind Dir Waves Ship Positions

Ekin-s

Last reported at 2015-Jan-30 22:27 UTC. Time now 2015-Jan-31 07:06 UTC.
Position N 43°24' E 003°42'.

Length 109 m; draft 6.9 m.

Type: Ship. MMSI: 271042836.

Date/timePositionNaut miles runAvg speedWind from/ knotsBaromVisibWave heightAir tempDewpointWater temp
2015-Jan-30 22:27N 43°24' E 003°42'0 0.0
2015-Jan-30 20:27N 43°24' E 003°42'0 0.1
2015-Jan-30 14:32N 43°24' E 003°43'6 4.9
2015-Jan-30 13:15N 43°20' E 003°50'3 4.0
2015-Jan-30 12:25N 43°18' E 003°54'6 7.4
2015-Jan-30 11:33N 43°16' E 004°02'11 9.8
2015-Jan-30 10:29N 43°12' E 004°15'10 9.0
2015-Jan-30 09:21N 43°09' E 004°28'7 8.2
2015-Jan-30 08:28N 43°06' E 004°38'18 9.1
2015-Jan-30 06:30N 43°00' E 005°01'72 6.5
2015-Jan-29 19:33N 42°46' E 006°36'8 7.6
2015-Jan-29 18:33N 42°49' E 006°46'8 7.7
2015-Jan-29 17:33N 42°53' E 006°55'8 7.7
2015-Jan-29 16:33N 42°58' E 007°03'9 8.7
2015-Jan-29 15:33N 43°02' E 007°13'101 6.8
2015-Jan-29 00:33N 43°07' E 009°32'39510.8
2015-Jan-27 12:04N 38°24' E 015°35'611.6
2015-Jan-27 11:33N 38°19' E 015°41'1010.0
2015-Jan-27 10:33N 38°10' E 015°37'1212.2
2015-Jan-27 09:33N 37°58' E 015°35'1611.3
2015-Jan-27 08:10N 37°47' E 015°49'  
2015-Jan-25 00:21N 40°10' E 026°23'1311.9
2015-Jan-24 23:14N 40°19' E 026°36'912.6
2015-Jan-24 22:33N 40°25' E 026°43'123 6.8
2015-Jan-24 04:30N 41°24' E 029°06'  
2015-Jan-21 08:13N 41°20' E 029°13'  

Dump ship's entire track history